createdAt,value
2023-01-22T00:02:32.336Z,6.97
2023-01-22T00:05:34.333Z,6.63
2023-01-22T00:08:37.187Z,5.97
2023-01-22T00:11:38.476Z,7.35
2023-01-22T00:14:41.441Z,7.38
2023-01-22T00:17:42.744Z,6.80
2023-01-22T00:20:48.946Z,5.37
2023-01-22T00:23:51.509Z,7.57
2023-01-22T00:26:52.802Z,5.93
2023-01-22T00:29:55.316Z,5.35
2023-01-22T00:32:56.595Z,5.87
2023-01-22T00:36:05.351Z,6.33
2023-01-22T00:39:07.942Z,5.75
2023-01-22T00:42:09.215Z,6.05
2023-01-22T00:45:14.577Z,6.68
2023-01-22T00:48:15.842Z,6.70
2023-01-22T00:51:19.499Z,5.73
2023-01-22T00:54:22.060Z,5.45
2023-01-22T00:57:23.507Z,5.72
2023-01-22T01:00:26.270Z,7.10
2023-01-22T01:03:29.538Z,5.77
2023-01-22T01:06:32.839Z,6.60
2023-01-22T01:09:35.438Z,8.40
2023-01-22T01:12:36.712Z,5.57
2023-01-22T01:15:39.496Z,6.55
2023-01-22T01:18:40.999Z,8.00
2023-01-22T01:21:44.897Z,6.43
2023-01-22T01:24:47.412Z,6.35
2023-01-22T01:27:48.677Z,5.40
2023-01-22T01:30:51.269Z,6.63
2023-01-22T01:33:52.814Z,6.63
2023-01-22T01:40:15.976Z,5.38
2023-01-22T01:43:19.110Z,7.40
2023-01-22T01:46:25.978Z,6.65
2023-01-22T01:49:33.054Z,7.77
2023-01-22T01:52:37.049Z,7.60
2023-01-22T02:05:46.025Z,5.60
2023-01-22T02:08:51.178Z,6.77
2023-01-22T02:11:54.639Z,6.20
2023-01-22T02:14:56.302Z,5.53
2023-01-22T02:17:58.845Z,7.88
2023-01-22T02:21:01.044Z,5.30
2023-01-22T02:24:04.599Z,7.47
2023-01-22T02:27:05.892Z,6.22
2023-01-22T02:30:09.704Z,5.40
2023-01-22T02:33:11.349Z,6.03
2023-01-22T02:36:14.631Z,5.83
2023-01-22T02:39:17.154Z,5.33
2023-01-22T02:42:18.541Z,4.80
2023-01-22T02:45:21.099Z,5.20
2023-01-22T02:48:22.360Z,5.20
2023-01-22T02:51:27.084Z,5.60
2023-01-22T02:54:29.615Z,5.40
2023-01-22T02:57:31.882Z,5.47
2023-01-22T03:00:34.526Z,5.35
2023-01-22T03:03:35.847Z,5.35
2023-01-22T03:06:41.360Z,5.93
2023-01-22T03:09:42.826Z,5.50
2023-01-22T03:13:05.644Z,5.90
2023-01-22T03:16:25.571Z,6.45
2023-01-22T03:19:46.786Z,6.38
2023-01-22T03:22:48.906Z,5.40
2023-01-22T03:25:57.094Z,5.30
2023-01-22T03:28:59.605Z,4.70
2023-01-22T03:32:00.953Z,5.97
2023-01-22T03:35:03.567Z,5.75
2023-01-22T03:38:07.097Z,4.40
2023-01-22T03:41:12.436Z,5.43
2023-01-22T03:44:14.464Z,5.45
2023-01-22T03:47:18.441Z,5.05
2023-01-22T03:50:20.306Z,4.53
2023-01-22T03:53:23.709Z,5.63
2023-01-22T03:56:27.133Z,5.00
2023-01-22T03:59:28.454Z,6.10
2023-01-22T04:02:31.104Z,4.82
2023-01-22T04:05:33.730Z,5.93
2023-01-22T04:11:58.883Z,6.47
2023-01-22T04:15:00.177Z,6.20
2023-01-22T04:18:02.682Z,6.47
2023-01-22T04:21:06.290Z,6.50
2023-01-22T04:24:08.329Z,5.83
2023-01-22T04:30:30.640Z,6.82
2023-01-22T04:33:33.352Z,6.50
2023-01-22T04:36:34.631Z,6.82
2023-01-22T04:39:36.583Z,6.67
2023-01-22T04:42:39.127Z,6.60
2023-01-22T04:45:40.415Z,7.10
2023-01-22T04:48:43.023Z,6.55
2023-01-22T04:51:44.423Z,6.73
2023-01-22T04:54:47.589Z,6.70
2023-01-22T04:57:48.896Z,7.10
2023-01-22T05:00:50.284Z,5.93
2023-01-22T05:03:53.088Z,6.45
2023-01-22T05:06:54.427Z,6.67
2023-01-22T05:09:56.436Z,6.90
2023-01-22T05:13:01.647Z,6.97
2023-01-22T05:16:03.465Z,7.25
2023-01-22T05:22:25.414Z,7.80
2023-01-22T05:25:27.916Z,6.27
2023-01-22T05:28:29.248Z,6.07
2023-01-22T05:31:31.804Z,8.32
2023-01-22T05:34:37.795Z,8.05
2023-01-22T05:37:40.321Z,8.25
2023-01-22T05:40:43.476Z,7.75
2023-01-22T05:43:45.052Z,7.20
2023-01-22T05:46:47.586Z,7.70
2023-01-22T05:49:48.859Z,8.77
2023-01-22T05:52:54.144Z,7.45
2023-01-22T05:56:00.787Z,7.53
2023-01-22T05:59:02.076Z,8.15
2023-01-22T06:02:03.485Z,8.30
2023-01-22T06:05:05.855Z,8.13
2023-01-22T06:08:08.920Z,8.10
2023-01-22T06:11:14.449Z,7.78
2023-01-22T06:14:15.940Z,9.13
2023-01-22T06:17:18.575Z,8.60
2023-01-22T06:20:20.126Z,9.17
2023-01-22T06:23:22.671Z,8.63
2023-01-22T06:26:24.915Z,8.55
2023-01-22T06:29:27.542Z,8.40
2023-01-22T06:32:30.163Z,8.43
2023-01-22T06:35:31.469Z,9.43
2023-01-22T06:38:32.883Z,8.90
2023-01-22T06:41:35.021Z,8.32
2023-01-22T06:44:37.659Z,8.52
2023-01-22T06:47:43.174Z,8.83
2023-01-22T06:50:44.711Z,7.93
2023-01-22T06:53:47.499Z,8.70
2023-01-22T06:56:49.537Z,9.00
2023-01-22T06:59:52.170Z,7.70
2023-01-22T07:02:55.276Z,8.10
2023-01-22T07:05:57.593Z,8.27
2023-01-22T07:09:00.254Z,10.43
2023-01-22T07:12:02.291Z,8.32
2023-01-22T07:15:06.079Z,8.48
2023-01-22T07:18:07.490Z,8.43
2023-01-22T07:21:11.208Z,9.87
2023-01-22T07:27:35.245Z,8.07
2023-01-22T07:34:01.680Z,7.77
2023-01-22T07:37:04.456Z,8.37
2023-01-22T07:40:08.308Z,8.57
2023-01-22T07:43:14.209Z,8.80
2023-01-22T07:46:16.941Z,10.68
2023-01-22T07:49:19.634Z,9.13
2023-01-22T07:52:21.189Z,10.67
2023-01-22T07:55:24.261Z,9.60
2023-01-22T07:58:26.267Z,9.02
2023-01-22T08:04:49.677Z,10.33
2023-01-22T08:07:51.070Z,10.10
2023-01-22T08:10:53.692Z,11.10
2023-01-22T08:13:55.698Z,9.30
2023-01-22T08:16:57.004Z,10.20
2023-01-22T08:19:58.364Z,11.53
2023-01-22T08:23:00.330Z,9.80
2023-01-22T08:26:03.491Z,11.23
2023-01-22T08:32:26.975Z,11.10
2023-01-22T08:35:29.677Z,9.37
2023-01-22T08:38:30.975Z,10.73
2023-01-22T08:41:33.558Z,10.05
2023-01-22T08:44:35.504Z,12.25
2023-01-22T08:47:38.134Z,9.80
2023-01-22T08:50:40.718Z,9.20
2023-01-22T08:53:43.504Z,10.67
2023-01-22T08:56:48.598Z,10.05
2023-01-22T09:00:00.826Z,10.55
2023-01-22T09:03:02.765Z,10.13
2023-01-22T09:06:05.728Z,9.80
2023-01-22T09:09:07.387Z,11.17
2023-01-22T09:12:09.921Z,10.98
2023-01-22T09:15:12.184Z,11.27
2023-01-22T09:18:14.722Z,10.55
2023-01-22T09:21:15.996Z,11.80
2023-01-22T09:24:18.501Z,10.13
2023-01-22T09:27:21.231Z,9.85
2023-01-22T09:30:25.603Z,10.50
2023-01-22T09:33:28.107Z,10.32
2023-01-22T09:36:30.991Z,11.10
2023-01-22T09:39:32.303Z,11.13
2023-01-22T09:42:37.987Z,10.32
2023-01-22T09:45:40.914Z,11.43
2023-01-22T09:48:47.484Z,11.88
2023-01-22T09:51:53.379Z,11.43
2023-01-22T09:54:56.777Z,11.07
2023-01-22T09:58:03.687Z,11.45
2023-01-22T10:01:06.717Z,11.27
2023-01-22T10:04:24.204Z,11.80
2023-01-22T10:07:30.332Z,12.57
2023-01-22T10:10:33.399Z,11.03
2023-01-22T10:13:36.702Z,10.80
2023-01-22T10:16:39.990Z,11.73
2023-01-22T10:19:45.774Z,11.65
2023-01-22T10:22:48.191Z,12.33
2023-01-22T10:25:53.182Z,12.90
2023-01-22T10:28:57.412Z,10.07
2023-01-22T10:32:02.730Z,13.45
2023-01-22T10:35:07.950Z,10.15
2023-01-22T10:38:22.155Z,14.27
2023-01-22T10:41:25.017Z,12.50
2023-01-22T10:44:26.708Z,12.90
2023-01-22T10:47:30.022Z,14.27
2023-01-22T10:50:31.812Z,12.68
2023-01-22T10:53:36.986Z,11.80
2023-01-22T10:56:40.836Z,11.57
2023-01-22T10:59:49.013Z,11.57
2023-01-22T11:02:51.903Z,11.60
2023-01-22T11:06:00.993Z,10.43
2023-01-22T11:09:08.848Z,13.60
2023-01-22T11:12:18.742Z,12.87
2023-01-22T11:15:25.334Z,13.90
2023-01-22T11:18:31.959Z,12.23
2023-01-22T11:21:37.559Z,12.52
2023-01-22T11:24:46.351Z,11.80
2023-01-22T11:28:04.625Z,12.03
2023-01-22T11:31:28.843Z,16.45
2023-01-22T11:34:51.813Z,12.77
2023-01-22T11:38:16.280Z,13.18
2023-01-22T11:41:31.447Z,13.47
2023-01-22T11:44:52.281Z,12.73
2023-01-22T11:48:13.194Z,13.88
2023-01-22T11:51:29.313Z,14.35
2023-01-22T11:54:56.170Z,15.35
2023-01-22T11:58:08.373Z,13.83
2023-01-22T12:01:30.041Z,12.03
2023-01-22T12:04:51.948Z,18.70
2023-01-22T12:08:23.629Z,14.50
2023-01-22T12:11:52.674Z,12.05
2023-01-22T12:15:27.591Z,12.43
2023-01-22T12:18:59.591Z,14.47
2023-01-22T12:22:09.043Z,13.82
2023-01-22T12:25:17.695Z,12.50
2023-01-22T12:28:25.752Z,11.45
2023-01-22T12:31:32.923Z,14.93
2023-01-22T12:38:16.615Z,13.70
2023-01-22T12:41:33.355Z,15.90
2023-01-22T12:44:47.660Z,14.50
2023-01-22T12:47:56.233Z,11.63
2023-01-22T12:50:59.651Z,12.13
2023-01-22T12:54:10.409Z,12.57
2023-01-22T12:57:23.511Z,13.38
2023-01-22T13:00:35.157Z,13.77
2023-01-22T13:03:38.037Z,13.47
2023-01-22T13:06:44.087Z,15.47
2023-01-22T13:09:47.488Z,13.35
2023-01-22T13:12:55.018Z,13.95
2023-01-22T13:16:02.708Z,13.10
2023-01-22T13:19:18.643Z,13.57
2023-01-22T13:22:23.852Z,12.73
2023-01-22T13:25:28.117Z,13.15
2023-01-22T13:28:30.913Z,14.98
2023-01-22T13:31:35.204Z,15.07
2023-01-22T13:34:36.583Z,15.73
2023-01-22T13:41:06.672Z,15.98
2023-01-22T13:44:18.026Z,15.55
2023-01-22T13:47:28.497Z,18.00
2023-01-22T13:50:31.058Z,16.87
2023-01-22T13:53:41.545Z,15.43
2023-01-22T13:56:43.597Z,15.70
2023-01-22T13:59:54.569Z,14.40
2023-01-22T14:02:56.772Z,15.13
2023-01-22T14:06:08.636Z,13.67
2023-01-22T14:09:10.270Z,20.20
2023-01-22T14:12:17.939Z,15.73
2023-01-22T14:15:21.234Z,18.25
2023-01-22T14:18:24.035Z,19.35
2023-01-22T14:21:25.327Z,15.47
2023-01-22T14:24:28.065Z,19.63
2023-01-22T14:27:41.257Z,15.75
2023-01-22T14:30:45.280Z,15.18
2023-01-22T14:33:46.695Z,18.95
2023-01-22T14:36:49.983Z,18.10
2023-01-22T14:39:51.692Z,17.17
2023-01-22T14:42:54.316Z,16.80
2023-01-22T14:45:56.977Z,14.90
2023-01-22T14:49:02.310Z,14.88
2023-01-22T14:52:04.002Z,18.63
2023-01-22T14:55:08.552Z,16.20
2023-01-22T14:58:10.144Z,18.92
2023-01-22T15:01:17.270Z,17.90
2023-01-22T15:04:18.689Z,15.88
2023-01-22T15:07:22.359Z,16.63
2023-01-22T15:10:25.394Z,18.53
2023-01-22T15:13:27.068Z,17.52
2023-01-22T15:16:29.325Z,19.83
2023-01-22T15:19:40.740Z,17.10
2023-01-22T15:22:44.453Z,17.53
2023-01-22T15:25:55.903Z,17.40
2023-01-22T15:28:57.470Z,19.10
2023-01-22T15:32:01.832Z,21.17
2023-01-22T15:35:03.523Z,17.70
2023-01-22T15:38:06.327Z,19.43
2023-01-22T15:41:18.445Z,14.97
2023-01-22T15:44:22.515Z,19.48
2023-01-22T15:47:24.911Z,19.42
2023-01-22T15:50:28.503Z,18.52
2023-01-22T15:53:29.801Z,17.33
2023-01-22T15:56:36.546Z,19.47
2023-01-22T15:59:40.623Z,19.67
2023-01-22T16:02:43.169Z,16.63
2023-01-22T16:05:44.673Z,18.17
2023-01-22T16:08:48.129Z,18.80
2023-01-22T16:11:49.533Z,16.47
2023-01-22T16:14:52.128Z,16.45
2023-01-22T16:17:54.452Z,17.00
2023-01-22T16:21:00.754Z,18.15
2023-01-22T16:24:02.752Z,20.50
2023-01-22T16:27:05.323Z,19.00
2023-01-22T16:30:09.008Z,19.25
2023-01-22T16:33:19.805Z,18.73
2023-01-22T16:36:23.201Z,20.20
2023-01-22T16:39:26.370Z,18.63
2023-01-22T16:42:29.030Z,20.43
2023-01-22T16:45:31.648Z,18.92
2023-01-22T16:48:33.706Z,18.98
2023-01-22T16:51:36.826Z,17.70
2023-01-22T16:54:38.881Z,18.40
2023-01-22T16:57:41.413Z,17.87
2023-01-22T17:00:43.035Z,17.73
2023-01-22T17:03:46.248Z,20.83
2023-01-22T17:06:49.411Z,17.83
2023-01-22T17:09:51.333Z,18.98
2023-01-22T17:12:52.640Z,17.88
2023-01-22T17:15:56.105Z,22.07
2023-01-22T17:19:00.720Z,18.95
2023-01-22T17:22:02.536Z,18.35
2023-01-22T17:25:06.141Z,19.80
2023-01-22T17:28:08.153Z,18.27
2023-01-22T17:31:12.455Z,19.63
2023-01-22T17:34:15.131Z,17.65
2023-01-22T17:37:17.909Z,20.02
2023-01-22T17:40:19.806Z,20.45
2023-01-22T17:43:21.113Z,18.27
2023-01-22T17:46:25.466Z,17.60
2023-01-22T17:49:28.710Z,16.85
2023-01-22T17:52:30.325Z,18.23
2023-01-22T17:55:33.240Z,18.95
2023-01-22T17:58:34.947Z,20.83
2023-01-22T18:01:39.225Z,19.73
2023-01-22T18:04:41.551Z,18.55
2023-01-22T18:07:42.863Z,18.70
2023-01-22T18:10:44.260Z,20.65
2023-01-22T18:13:46.568Z,16.08
2023-01-22T18:16:49.433Z,20.33
2023-01-22T18:19:51.406Z,17.75
2023-01-22T18:22:53.576Z,15.77
2023-01-22T18:25:58.524Z,17.27
2023-01-22T18:29:00.062Z,19.98
2023-01-22T18:32:02.629Z,18.93
2023-01-22T18:35:05.755Z,18.13
2023-01-22T18:38:07.123Z,18.35
2023-01-22T18:41:10.656Z,20.25
2023-01-22T18:44:14.053Z,19.60
2023-01-22T18:47:16.593Z,18.13
2023-01-22T18:50:19.082Z,16.80
2023-01-22T18:53:21.834Z,18.48
2023-01-22T18:56:24.743Z,19.15
2023-01-22T18:59:27.336Z,16.70
2023-01-22T19:02:28.763Z,18.40
2023-01-22T19:05:30.848Z,17.90
2023-01-22T19:08:34.116Z,16.45
2023-01-22T19:11:38.013Z,17.58
2023-01-22T19:14:40.514Z,16.33
2023-01-22T19:17:43.052Z,19.40
2023-01-22T19:20:45.119Z,15.82
2023-01-22T19:23:51.231Z,19.80
2023-01-22T19:26:54.047Z,19.88
2023-01-22T19:29:55.491Z,17.33
2023-01-22T19:32:58.183Z,20.43
2023-01-22T19:36:00.299Z,19.92
2023-01-22T19:39:06.476Z,19.00
2023-01-22T19:42:07.842Z,20.42
2023-01-22T19:45:09.736Z,20.50
2023-01-22T19:48:11.295Z,19.80
2023-01-22T19:54:35.641Z,21.52
2023-01-22T20:00:59.850Z,19.23
2023-01-22T20:04:04.090Z,20.20
2023-01-22T20:07:06.028Z,18.10
2023-01-22T20:10:09.370Z,18.02
2023-01-22T20:13:11.179Z,17.88
2023-01-22T20:16:21.591Z,17.95
2023-01-22T20:19:24.491Z,18.47
2023-01-22T20:22:26.444Z,17.48
2023-01-22T20:25:30.891Z,19.05
2023-01-22T20:28:33.861Z,19.33
2023-01-22T20:31:36.606Z,16.60
2023-01-22T20:34:39.176Z,17.20
2023-01-22T20:37:41.144Z,22.35
2023-01-22T20:40:45.442Z,21.25
2023-01-22T20:43:46.807Z,18.50
2023-01-22T20:50:09.977Z,16.40
2023-01-22T20:53:11.899Z,16.60
2023-01-22T20:56:15.920Z,16.90
2023-01-22T20:59:18.550Z,16.17
2023-01-22T21:02:19.934Z,17.02
2023-01-22T21:05:21.523Z,17.70
2023-01-22T21:08:23.857Z,16.50
2023-01-22T21:11:28.757Z,17.67
2023-01-22T21:14:30.207Z,17.80
2023-01-22T21:17:35.135Z,17.38
2023-01-22T21:20:37.153Z,17.13
2023-01-22T21:23:40.507Z,17.85
2023-01-22T21:26:43.358Z,17.30
2023-01-22T21:29:44.672Z,17.55
2023-01-22T21:32:51.186Z,14.68
2023-01-22T21:35:52.534Z,16.30
2023-01-22T21:38:56.015Z,17.65
2023-01-22T21:42:13.719Z,14.60
2023-01-22T21:45:34.585Z,15.50
2023-01-22T21:48:36.224Z,16.67
2023-01-22T21:51:38.795Z,16.80
2023-01-22T21:54:41.522Z,16.17
2023-01-22T21:57:44.682Z,16.52
2023-01-22T22:00:46.336Z,17.27
2023-01-22T22:03:49.476Z,18.00
2023-01-22T22:06:50.923Z,17.50
2023-01-22T22:09:54.145Z,18.50
2023-01-22T22:12:55.663Z,17.63
2023-01-22T22:16:00.938Z,17.40
2023-01-22T22:19:06.154Z,17.17
2023-01-22T22:22:09.004Z,16.67
2023-01-22T22:25:12.278Z,18.08
2023-01-22T22:28:15.245Z,18.85
2023-01-22T22:31:16.840Z,18.10
2023-01-22T22:34:19.521Z,20.48
2023-01-22T22:37:21.677Z,18.13
2023-01-22T22:40:25.183Z,20.00
2023-01-22T22:46:47.946Z,18.55
2023-01-22T22:49:50.504Z,17.05
2023-01-22T22:52:51.814Z,17.77
2023-01-22T22:55:55.170Z,18.40
2023-01-22T22:58:59.400Z,17.00
2023-01-22T23:02:00.751Z,18.30
2023-01-22T23:05:03.246Z,19.50
2023-01-22T23:08:05.845Z,17.40
2023-01-22T23:11:10.850Z,16.73
2023-01-22T23:14:13.685Z,18.05
2023-01-22T23:17:15.008Z,18.90
2023-01-22T23:20:18.106Z,16.42
2023-01-22T23:23:19.584Z,15.93
2023-01-22T23:26:28.591Z,19.30
2023-01-22T23:29:29.886Z,20.05
2023-01-22T23:32:32.409Z,17.25
2023-01-22T23:35:35.023Z,17.38
2023-01-22T23:38:37.857Z,18.20
2023-01-22T23:41:40.074Z,17.90
2023-01-22T23:44:42.818Z,18.40
2023-01-22T23:47:44.111Z,20.10
2023-01-22T23:50:47.359Z,18.50
2023-01-22T23:53:50.877Z,17.90
2023-01-22T23:56:54.097Z,20.47
